• Join FlightAware (Why Join?)
  • Login
  • US Flag 
06:11AM EDT


 

Airport Tracker/Info


-or-


 

Live Flight TrackerFlight Track Log ✈ CHQ3055 ✈ 12-May-2013 ✈ KPHL - KIND

Flight Track Log - Related Links

Times and Time Zones

All times are in EDT time to prevent confusion due to time zone crossing. See the CHQ3055 flight status page for this flight to view local times or setup timezone preferences in your user account.

Time Position Orientation Groundspeed Altitude Reporting Facility
EDT Latitude Longitude Course Direction KTS MPH feet Rate Location/Type
03:50PM 39.8667 -75.2833 270° West 165 190 1,000  Level Philadelphia TRACON
03:53PM 39.9000 -75.5743 270° West  Level FlightAware Approximate
03:53PM 39.8450 -75.4106 258° West 197 227 5,700  Level New York Center
03:54PM 39.9131 -75.6883 258° West  Level FlightAware Approximate
03:54PM 39.8542 -75.4978 278° West 220 253 8,900  Level New York Center
03:55PM 39.9000 -75.8045 270° West  Level FlightAware Approximate
03:55PM 39.8611 -75.5847 276° West 238 274 10,200  Level New York Center
03:56PM 39.9000 -75.9225 270° West  Level FlightAware Approximate
03:56PM 39.8867 -75.6703 291° West 269 310 12,200  Level New York Center
03:57PM 39.9239 -75.7786 294° West 279 321 14,600 2,100 Climbing New York Center
03:58PM 39.9575 -75.8675 296° West 284 327 16,400 1,920 Climbing New York Center
03:59PM 39.9636 -75.9656 275° West 272 313 18,500 1,680 Climbing New York Center
04:00PM 39.9758 -76.0694 279° West 280 322 19,900 1,440 Climbing New York Center
04:01PM 39.9811 -76.1783 274° West 291 335 21,400 1,500 Climbing New York Center
04:02PM 39.9844 -76.2897 272° West 304 350 23,000 1,560 Climbing New York Center
04:03PM 39.9917 -76.4014 275° West 309 356 24,600 1,620 Climbing New York Center
04:04PM 39.9969 -76.5047 274° West 309 356 26,300 1,740 Climbing New York Center
04:05PM 40.0067 -76.6086 277° West 309 356 28,000 1,560 Climbing New York Center
04:06PM 40.0122 -76.7067 274° West 291 335 29,500 1,320 Climbing New York Center
04:07PM 40.0197 -76.8022 276° West 280 322 30,800 1,320 Climbing New York Center
04:08PM 40.0228 -76.9028 272° West 275 316 32,200 1,260 Climbing New York Center
04:09PM 40.0303 -77.0011 276° West 275 316 33,400 900 Climbing New York Center
04:10PM 40.0372 -77.1075 275° West 275 316 34,000 240 Climbing New York Center
04:11PM 40.0436 -77.2164 274° West 290 334 34,000  Level New York Center
04:12PM 40.0519 -77.3339 275° West 311 358 34,000  Level New York Center
04:13PM 40.0661 -77.5447 275° West 319 367 34,000  Level Cleveland Center
04:14PM 40.0733 -77.6608 275° West 324 373 34,000  Level Cleveland Center
04:15PM 40.0783 -77.7692 273° West 324 373 34,000  Level Cleveland Center
04:16PM 40.0850 -77.8775 275° West 313 360 34,000  Level Cleveland Center
04:17PM 40.0881 -78.0050 272° West 313 360 34,000  Level Cleveland Center
04:18PM 40.0947 -78.1161 275° West 308 354 34,000  Level Cleveland Center
04:19PM 40.0992 -78.2272 273° West 308 354 34,000  Level Cleveland Center
04:20PM 40.1056 -78.3436 274° West 308 354 34,000  Level Cleveland Center
04:21PM 40.1100 -78.4575 273° West 313 360 34,000  Level Cleveland Center
04:22PM 40.1161 -78.5742 274° West 318 366 34,000  Level Cleveland Center
04:23PM 40.1225 -78.6933 274° West 323 372 34,000  Level Cleveland Center
04:24PM 40.1283 -78.8072 274° West 328 377 34,000  Level Cleveland Center
04:25PM 40.1344 -78.9267 274° West 328 377 34,000  Level Cleveland Center
04:26PM 40.1381 -79.0486 272° West 328 377 34,000  Level Cleveland Center
04:27PM 40.1439 -79.1681 274° West 328 377 34,000  Level Cleveland Center
04:28PM 40.1453 -79.2875 271° West 328 377 34,000  Level Cleveland Center
04:29PM 40.1528 -79.4125 275° West 333 383 34,000  Level Cleveland Center
04:30PM 40.1539 -79.5292 271° West 333 383 34,000  Level Cleveland Center
04:31PM 40.1592 -79.6514 273° West 333 383 34,000  Level Cleveland Center
04:32PM 40.1603 -79.7708 271° West 333 383 34,000  Level Cleveland Center
04:33PM 40.1631 -79.8931 272° West 333 383 34,000  Level Cleveland Center
04:34PM 40.1658 -80.0097 272° West 333 383 34,000  Level Cleveland Center
04:35PM 40.1664 -80.1267 270° West 328 377 34,000  Level Cleveland Center
04:36PM 40.1689 -80.2461 272° West 328 377 34,000  Level Cleveland Center
04:37PM 40.1711 -80.3522 272° West 328 377 34,000  Level Cleveland Center
04:38PM 40.1733 -80.4689 271° West 328 377 34,000  Level Cleveland Center
04:39PM 40.1736 -80.5858 270° West 328 377 34,000  Level Cleveland Center
04:41PM 40.1711 -80.7811 269° West 328 377 34,000  Level Indianapolis Center
04:42PM 40.1733 -80.9017 271° West 330 380 34,000  Level Indianapolis Center
04:43PM 40.1739 -81.0228 270° West 330 380 34,000  Level Indianapolis Center
04:44PM 40.1722 -81.1447 269° West 331 381 34,000  Level Indianapolis Center
04:45PM 40.1711 -81.2658 269° West 330 380 34,000  Level Indianapolis Center
04:46PM 40.1694 -81.4081 269° West 331 381 34,000  Level Indianapolis Center
04:47PM 40.1678 -81.5283 269° West 330 380 34,000  Level Indianapolis Center
04:48PM 40.1672 -81.6497 270° West 330 380 34,000  Level Indianapolis Center
04:49PM 40.1756 -81.7700 275° West 330 380 34,000  Level Indianapolis Center
04:50PM 40.1831 -81.8983 274° West 330 380 34,000  Level Indianapolis Center
04:51PM 40.1897 -82.0197 274° West 332 382 34,000  Level Indianapolis Center
04:52PM 40.1972 -82.1425 275° West 335 386 34,000  Level Indianapolis Center
04:53PM 40.2036 -82.2636 274° West 332 382 34,000 -120 Level Indianapolis Center
04:54PM 40.2097 -82.3847 274° West 333 383 33,800 -720 Descending Indianapolis Center
04:55PM 40.2172 -82.5108 274° West 343 395 32,600 -1,260 Descending Indianapolis Center
04:57PM 40.2239 -82.6339 274° West 339 390 31,300 -1,260 Descending Indianapolis Center
04:58PM 40.2311 -82.7744 274° West 330 380 30,000 -660 Descending Indianapolis Center
04:59PM 40.2369 -82.8933 274° West 326 375 30,000  Level Indianapolis Center
05:00PM 40.2425 -83.0128 274° West 327 376 30,000  Level Indianapolis Center
05:01PM 40.2483 -83.1300 274° West 322 371 30,000  Level Indianapolis Center
05:02PM 40.2533 -83.2475 273° West 322 371 30,000  Level Indianapolis Center
05:03PM 40.2594 -83.3619 274° West 316 364 30,000  Level Indianapolis Center
05:04PM 40.2647 -83.4969 273° West 318 366 30,000  Level Indianapolis Center
05:05PM 40.2703 -83.6119 274° West 316 364 30,000  Level Indianapolis Center
05:06PM 40.2744 -83.7264 273° West 314 361 30,000  Level Indianapolis Center
05:07PM 40.2797 -83.8417 273° West 316 364 30,000  Level Indianapolis Center
05:08PM 40.2842 -83.9592 273° West 321 369 30,000  Level Indianapolis Center
05:09PM 40.2875 -84.0753 272° West 319 367 30,000  Level Indianapolis Center
05:10PM 40.2828 -84.1936 267° West 324 373 30,000 -1,020 Level Indianapolis Center
05:11PM 40.2778 -84.3300 267° West 321 369 28,000 -1,980 Descending Indianapolis Center
05:12PM 40.2750 -84.4383 268° West 301 346 26,000 -1,560 Descending Indianapolis Center
05:13PM 40.2714 -84.5436 267° West 291 335 24,800 -1,260 Descending Indianapolis Center
05:14PM 40.2669 -84.6528 267° West 298 343 23,500 -1,320 Descending Indianapolis Center
05:15PM 40.2631 -84.7647 267° West 305 351 22,100 -1,440 Descending Indianapolis Center
05:16PM 40.2581 -84.8744 267° West 300 345 20,600 -1,500 Descending Indianapolis Center
05:17PM 40.2539 -84.9897 267° West 288 331 19,000 -1,380 Descending Indianapolis Center
05:18PM 40.2497 -85.0914 267° West 284 327 17,800 -1,320 Descending Indianapolis Center
05:19PM 40.2453 -85.1917 267° West 280 322 16,300 -1,620 Descending Indianapolis Center
05:20PM 40.2419 -85.2908 268° West 276 318 14,500 -1,860 Descending Indianapolis Center
05:21PM 40.2375 -85.3900 267° West 274 315 12,500 -1,620 Descending Indianapolis Center
05:22PM 40.2003 -85.4786 241° Southwest 278 320 11,300 -780 Descending Indianapolis Center
05:23PM 40.1519 -85.5819 239° Southwest 279 321 11,000 -180 Descending Indianapolis Center
05:24PM 40.1167 -85.6667 241° Southwest 274 315 11,000 -180 Level Indianapolis TRACON
05:25PM 40.0833 -85.7500 242° Southwest 277 319 10,700 -780 Descending Indianapolis TRACON
05:26PM 40.0333 -85.8167 226° Southwest 270 311 9,600 -1,200 Descending Indianapolis TRACON
05:26PM 40.0261 -85.8275 229° Southwest 267 307 9,300 -1,380 Descending Indianapolis Center
05:27PM 39.9769 -85.8928 226° Southwest 260 299 7,800 -1,500 Descending Indianapolis Center
05:29PM 39.9297 -85.9825 236° Southwest 253 291 6,300 -1,560 Descending Indianapolis Center
05:30PM 39.8908 -86.0531 234° Southwest 248 285 4,600 -1,140 Descending Indianapolis Center
05:31PM 39.8511 -86.1125 229° Southwest 232 267 4,000 -600 Descending Indianapolis Center